sensor_id;sensor_type;location;lat;lon;timestamp;P1;durP1;ratioP1;P2;durP2;ratioP2
7454;SDS011;3769;51.208;4.454;2022-12-05T00:01:39;34.6;;;18;;
7454;SDS011;3769;51.208;4.454;2022-12-05T00:06:05;30.3;;;16.6;;
7454;SDS011;3769;51.208;4.454;2022-12-05T00:11:14;33.2;;;17.2;;
7454;SDS011;3769;51.208;4.454;2022-12-05T00:16:06;32.7;;;16.3;;
7454;SDS011;3769;51.208;4.454;2022-12-05T00:21:06;28.4;;;15.9;;
7454;SDS011;3769;51.208;4.454;2022-12-05T00:26:05;28.4;;;15.8;;
7454;SDS011;3769;51.208;4.454;2022-12-05T00:31:08;29.4;;;16.7;;
7454;SDS011;3769;51.208;4.454;2022-12-05T00:36:07;30.6;;;15.7;;
7454;SDS011;3769;51.208;4.454;2022-12-05T00:41:06;28.4;;;15.8;;
7454;SDS011;3769;51.208;4.454;2022-12-05T00:46:07;31.3;;;16.2;;
7454;SDS011;3769;51.208;4.454;2022-12-05T00:51:07;29.7;;;16.5;;
7454;SDS011;3769;51.208;4.454;2022-12-05T00:56:07;30.4;;;16.9;;
7454;SDS011;3769;51.208;4.454;2022-12-05T01:01:10;32.7;;;16.4;;
7454;SDS011;3769;51.208;4.454;2022-12-05T01:06:05;31.1;;;16.7;;
7454;SDS011;3769;51.208;4.454;2022-12-05T01:11:06;36.7;;;16.9;;
7454;SDS011;3769;51.208;4.454;2022-12-05T01:16:05;32.7;;;17.3;;
7454;SDS011;3769;51.208;4.454;2022-12-05T01:21:05;34.4;;;17.1;;
7454;SDS011;3769;51.208;4.454;2022-12-05T01:26:06;33.2;;;16.6;;
7454;SDS011;3769;51.208;4.454;2022-12-05T01:31:08;29.2;;;16.9;;
7454;SDS011;3769;51.208;4.454;2022-12-05T01:36:08;33;;;17.2;;
7454;SDS011;3769;51.208;4.454;2022-12-05T01:41:06;34.3;;;17.7;;
7454;SDS011;3769;51.208;4.454;2022-12-05T01:46:05;35.6;;;17.4;;
7454;SDS011;3769;51.208;4.454;2022-12-05T01:51:05;31.4;;;17.6;;
7454;SDS011;3769;51.208;4.454;2022-12-05T01:56:05;31.6;;;17.8;;
7454;SDS011;3769;51.208;4.454;2022-12-05T02:01:05;33.1;;;18.6;;
7454;SDS011;3769;51.208;4.454;2022-12-05T02:06:05;35.3;;;20;;
7454;SDS011;3769;51.208;4.454;2022-12-05T02:11:06;34.3;;;19.3;;
7454;SDS011;3769;51.208;4.454;2022-12-05T02:16:10;35.7;;;19.6;;
7454;SDS011;3769;51.208;4.454;2022-12-05T02:21:08;38.3;;;19.4;;
7454;SDS011;3769;51.208;4.454;2022-12-05T02:26:19;38.4;;;19.7;;
7454;SDS011;3769;51.208;4.454;2022-12-05T02:31:09;39.4;;;20.4;;
7454;SDS011;3769;51.208;4.454;2022-12-05T02:36:06;44.9;;;21.3;;
7454;SDS011;3769;51.208;4.454;2022-12-05T02:41:15;37.4;;;20.2;;
7454;SDS011;3769;51.208;4.454;2022-12-05T02:46:07;39.9;;;20.5;;
7454;SDS011;3769;51.208;4.454;2022-12-05T02:51:05;40.8;;;21.5;;
7454;SDS011;3769;51.208;4.454;2022-12-05T02:56:05;41.6;;;22.2;;
7454;SDS011;3769;51.208;4.454;2022-12-05T03:01:05;43.2;;;21.8;;
7454;SDS011;3769;51.208;4.454;2022-12-05T03:06:08;42.6;;;23.1;;
7454;SDS011;3769;51.208;4.454;2022-12-05T03:11:05;41.4;;;22.9;;
7454;SDS011;3769;51.208;4.454;2022-12-05T03:16:07;42.6;;;22.2;;
7454;SDS011;3769;51.208;4.454;2022-12-05T03:21:11;42.8;;;21.9;;
7454;SDS011;3769;51.208;4.454;2022-12-05T03:26:09;44.6;;;21.7;;
7454;SDS011;3769;51.208;4.454;2022-12-05T03:31:07;47.1;;;22.3;;
7454;SDS011;3769;51.208;4.454;2022-12-05T03:36:09;44.5;;;21.7;;
7454;SDS011;3769;51.208;4.454;2022-12-05T03:41:08;41.3;;;21.2;;
7454;SDS011;3769;51.208;4.454;2022-12-05T03:46:39;39.1;;;21.2;;
7454;SDS011;3769;51.208;4.454;2022-12-05T03:51:06;38.7;;;20.7;;
7454;SDS011;3769;51.208;4.454;2022-12-05T03:56:07;40.1;;;20.3;;
7454;SDS011;3769;51.208;4.454;2022-12-05T04:01:05;37.8;;;21.2;;
7454;SDS011;3769;51.208;4.454;2022-12-05T04:06:08;40.7;;;21.9;;
7454;SDS011;3769;51.208;4.454;2022-12-05T04:11:06;35.9;;;20.8;;
7454;SDS011;3769;51.208;4.454;2022-12-05T04:16:08;39.6;;;21.6;;
7454;SDS011;3769;51.208;4.454;2022-12-05T04:21:05;38.7;;;21.6;;
7454;SDS011;3769;51.208;4.454;2022-12-05T04:26:08;43.1;;;22.5;;
7454;SDS011;3769;51.208;4.454;2022-12-05T04:31:08;38.3;;;21.6;;
7454;SDS011;3769;51.208;4.454;2022-12-05T04:36:09;42.5;;;22.3;;
7454;SDS011;3769;51.208;4.454;2022-12-05T04:41:06;37.4;;;21.1;;
7454;SDS011;3769;51.208;4.454;2022-12-05T04:46:06;42;;;21.6;;
7454;SDS011;3769;51.208;4.454;2022-12-05T04:51:06;38.6;;;21.5;;
7454;SDS011;3769;51.208;4.454;2022-12-05T04:56:05;39.6;;;22.1;;
7454;SDS011;3769;51.208;4.454;2022-12-05T05:01:26;42;;;22.7;;
7454;SDS011;3769;51.208;4.454;2022-12-05T05:06:05;36;;;20.9;;
7454;SDS011;3769;51.208;4.454;2022-12-05T05:11:10;39.7;;;21.4;;
7454;SDS011;3769;51.208;4.454;2022-12-05T05:16:05;39.2;;;21.6;;
7454;SDS011;3769;51.208;4.454;2022-12-05T05:21:05;38.7;;;21.8;;
7454;SDS011;3769;51.208;4.454;2022-12-05T05:26:05;35.5;;;21.4;;
7454;SDS011;3769;51.208;4.454;2022-12-05T05:31:05;41.3;;;21.5;;
7454;SDS011;3769;51.208;4.454;2022-12-05T05:36:06;40.7;;;21.2;;
7454;SDS011;3769;51.208;4.454;2022-12-05T05:41:10;37;;;21.5;;
7454;SDS011;3769;51.208;4.454;2022-12-05T05:46:06;39.3;;;21.8;;
7454;SDS011;3769;51.208;4.454;2022-12-05T05:51:06;37.9;;;20.5;;
7454;SDS011;3769;51.208;4.454;2022-12-05T05:56:06;42.6;;;21.4;;
7454;SDS011;3769;51.208;4.454;2022-12-05T06:01:06;34.2;;;21.2;;
7454;SDS011;3769;51.208;4.454;2022-12-05T06:06:07;39;;;22.1;;
7454;SDS011;3769;51.208;4.454;2022-12-05T06:11:06;40.7;;;21.8;;
7454;SDS011;3769;51.208;4.454;2022-12-05T06:16:06;39.4;;;21.8;;
7454;SDS011;3769;51.208;4.454;2022-12-05T06:21:05;43.4;;;22.1;;
7454;SDS011;3769;51.208;4.454;2022-12-05T06:26:09;37.2;;;22.1;;
7454;SDS011;3769;51.208;4.454;2022-12-05T06:31:06;39.5;;;21.9;;
7454;SDS011;3769;51.208;4.454;2022-12-05T06:36:06;39.5;;;22.7;;
7454;SDS011;3769;51.208;4.454;2022-12-05T06:41:06;39.9;;;22.7;;
7454;SDS011;3769;51.208;4.454;2022-12-05T06:46:06;39.2;;;21.8;;
7454;SDS011;3769;51.208;4.454;2022-12-05T06:51:07;38.4;;;21.8;;
7454;SDS011;3769;51.208;4.454;2022-12-05T06:56:06;41.9;;;22.7;;
7454;SDS011;3769;51.208;4.454;2022-12-05T07:01:08;38.5;;;21.9;;
7454;SDS011;3769;51.208;4.454;2022-12-05T07:06:06;39.6;;;22.9;;
7454;SDS011;3769;51.208;4.454;2022-12-05T07:11:05;37.8;;;22.4;;
7454;SDS011;3769;51.208;4.454;2022-12-05T07:16:05;41.5;;;22;;
7454;SDS011;3769;51.208;4.454;2022-12-05T07:21:06;40;;;21.9;;
7454;SDS011;3769;51.208;4.454;2022-12-05T07:26:06;42;;;22.8;;
7454;SDS011;3769;51.208;4.454;2022-12-05T07:31:06;38.6;;;22.4;;
7454;SDS011;3769;51.208;4.454;2022-12-05T07:36:07;37.5;;;22.1;;
7454;SDS011;3769;51.208;4.454;2022-12-05T07:41:06;39;;;23.1;;
7454;SDS011;3769;51.208;4.454;2022-12-05T07:46:05;39.3;;;22.9;;
7454;SDS011;3769;51.208;4.454;2022-12-05T07:51:06;42;;;23.8;;
7454;SDS011;3769;51.208;4.454;2022-12-05T07:56:06;37.3;;;22.5;;
7454;SDS011;3769;51.208;4.454;2022-12-05T08:01:14;36.3;;;22;;
7454;SDS011;3769;51.208;4.454;2022-12-05T08:06:06;38.8;;;22.2;;
7454;SDS011;3769;51.208;4.454;2022-12-05T08:11:07;42.4;;;22.9;;
7454;SDS011;3769;51.208;4.454;2022-12-05T08:16:06;38.8;;;21.7;;
7454;SDS011;3769;51.208;4.454;2022-12-05T08:21:07;39.4;;;22.2;;
7454;SDS011;3769;51.208;4.454;2022-12-05T08:26:06;41;;;22.2;;
7454;SDS011;3769;51.208;4.454;2022-12-05T08:31:07;40.4;;;22.5;;
7454;SDS011;3769;51.208;4.454;2022-12-05T08:36:06;38.7;;;21.2;;
7454;SDS011;3769;51.208;4.454;2022-12-05T08:41:07;37.4;;;21.8;;
7454;SDS011;3769;51.208;4.454;2022-12-05T08:46:06;37.2;;;22.2;;
7454;SDS011;3769;51.208;4.454;2022-12-05T08:51:06;37;;;21.4;;
7454;SDS011;3769;51.208;4.454;2022-12-05T08:56:06;35.6;;;21.2;;
7454;SDS011;3769;51.208;4.454;2022-12-05T09:01:08;36.1;;;21.3;;
7454;SDS011;3769;51.208;4.454;2022-12-05T09:06:07;32.4;;;19.7;;
7454;SDS011;3769;51.208;4.454;2022-12-05T09:11:06;34.9;;;19.8;;
7454;SDS011;3769;51.208;4.454;2022-12-05T09:16:06;33.5;;;19.2;;
7454;SDS011;3769;51.208;4.454;2022-12-05T09:21:06;27.4;;;17.6;;
7454;SDS011;3769;51.208;4.454;2022-12-05T09:26:06;31.9;;;17.3;;
7454;SDS011;3769;51.208;4.454;2022-12-05T09:31:06;27.3;;;15.1;;
7454;SDS011;3769;51.208;4.454;2022-12-05T09:36:06;24;;;15.5;;
7454;SDS011;3769;51.208;4.454;2022-12-05T09:41:11;25.2;;;15;;
7454;SDS011;3769;51.208;4.454;2022-12-05T09:46:48;22;;;14.7;;
7454;SDS011;3769;51.208;4.454;2022-12-05T09:51:06;21.1;;;13.8;;
7454;SDS011;3769;51.208;4.454;2022-12-05T09:56:11;22.3;;;14.3;;
7454;SDS011;3769;51.208;4.454;2022-12-05T10:01:10;24.2;;;13.9;;
7454;SDS011;3769;51.208;4.454;2022-12-05T10:06:11;20.4;;;13.7;;
7454;SDS011;3769;51.208;4.454;2022-12-05T10:11:09;20.8;;;12.7;;
7454;SDS011;3769;51.208;4.454;2022-12-05T10:16:08;21.3;;;13.7;;
7454;SDS011;3769;51.208;4.454;2022-12-05T10:21:13;22.3;;;13.1;;
7454;SDS011;3769;51.208;4.454;2022-12-05T10:26:06;22;;;13.1;;
7454;SDS011;3769;51.208;4.454;2022-12-05T10:31:07;21;;;13.4;;
7454;SDS011;3769;51.208;4.454;2022-12-05T10:36:10;20.5;;;12.8;;
7454;SDS011;3769;51.208;4.454;2022-12-05T10:41:06;20.9;;;13.6;;
7454;SDS011;3769;51.208;4.454;2022-12-05T10:46:05;20.2;;;14;;
7454;SDS011;3769;51.208;4.454;2022-12-05T10:51:06;22.6;;;13.6;;
7454;SDS011;3769;51.208;4.454;2022-12-05T10:57:26;21.9;;;15;;
7454;SDS011;3769;51.208;4.454;2022-12-05T11:01:06;22.5;;;14.2;;
7454;SDS011;3769;51.208;4.454;2022-12-05T11:06:23;20.3;;;13.9;;
7454;SDS011;3769;51.208;4.454;2022-12-05T11:11:07;21.4;;;15;;
7454;SDS011;3769;51.208;4.454;2022-12-05T11:16:09;21;;;13.5;;
7454;SDS011;3769;51.208;4.454;2022-12-05T11:21:07;20.8;;;13.6;;
7454;SDS011;3769;51.208;4.454;2022-12-05T11:26:37;19.1;;;13.3;;
7454;SDS011;3769;51.208;4.454;2022-12-05T11:31:18;20.3;;;13.7;;
7454;SDS011;3769;51.208;4.454;2022-12-05T11:36:22;20.9;;;14.3;;
7454;SDS011;3769;51.208;4.454;2022-12-05T11:41:42;21.1;;;13.4;;
7454;SDS011;3769;51.208;4.454;2022-12-05T11:46:29;19.9;;;13.8;;
7454;SDS011;3769;51.208;4.454;2022-12-05T11:51:09;17.3;;;12.3;;
7454;SDS011;3769;51.208;4.454;2022-12-05T11:56:46;21.1;;;13.6;;
7454;SDS011;3769;51.208;4.454;2022-12-05T12:01:10;18.8;;;12.2;;
7454;SDS011;3769;51.208;4.454;2022-12-05T12:11:09;17.9;;;11.8;;
7454;SDS011;3769;51.208;4.454;2022-12-05T12:16:15;16.1;;;11.4;;
7454;SDS011;3769;51.208;4.454;2022-12-05T12:22:08;16.7;;;10.6;;
7454;SDS011;3769;51.208;4.454;2022-12-05T12:26:13;16.7;;;11.8;;
7454;SDS011;3769;51.208;4.454;2022-12-05T12:32:28;15.7;;;11.1;;
7454;SDS011;3769;51.208;4.454;2022-12-05T12:37:12;15.6;;;11.6;;
7454;SDS011;3769;51.208;4.454;2022-12-05T12:46:10;17;;;11.4;;
7454;SDS011;3769;51.208;4.454;2022-12-05T12:51:05;16.2;;;11.8;;
7454;SDS011;3769;51.208;4.454;2022-12-05T13:02:17;18;;;12;;
7454;SDS011;3769;51.208;4.454;2022-12-05T13:06:09;21;;;13.2;;
7454;SDS011;3769;51.208;4.454;2022-12-05T13:11:07;22.6;;;14;;
7454;SDS011;3769;51.208;4.454;2022-12-05T13:16:06;22.6;;;14.5;;
7454;SDS011;3769;51.208;4.454;2022-12-05T13:21:06;20.7;;;14.3;;
7454;SDS011;3769;51.208;4.454;2022-12-05T13:26:07;19.7;;;13.6;;
7454;SDS011;3769;51.208;4.454;2022-12-05T13:31:05;18.6;;;13.9;;
7454;SDS011;3769;51.208;4.454;2022-12-05T13:36:07;21;;;13;;
7454;SDS011;3769;51.208;4.454;2022-12-05T13:41:05;24.4;;;15.4;;
7454;SDS011;3769;51.208;4.454;2022-12-05T13:46:06;19.3;;;13;;
7454;SDS011;3769;51.208;4.454;2022-12-05T13:51:07;19.6;;;13.2;;
7454;SDS011;3769;51.208;4.454;2022-12-05T14:02:44;19.8;;;13.3;;
7454;SDS011;3769;51.208;4.454;2022-12-05T14:06:05;19.7;;;12.5;;
7454;SDS011;3769;51.208;4.454;2022-12-05T14:11:07;20.4;;;12.9;;
7454;SDS011;3769;51.208;4.454;2022-12-05T14:16:39;19.7;;;12.5;;
7454;SDS011;3769;51.208;4.454;2022-12-05T14:21:08;20.3;;;12.9;;
7454;SDS011;3769;51.208;4.454;2022-12-05T14:26:11;18.2;;;12.7;;
7454;SDS011;3769;51.208;4.454;2022-12-05T14:31:12;19.8;;;12.9;;
7454;SDS011;3769;51.208;4.454;2022-12-05T14:36:06;20;;;12.8;;
7454;SDS011;3769;51.208;4.454;2022-12-05T14:41:14;16;;;11.7;;
7454;SDS011;3769;51.208;4.454;2022-12-05T14:46:06;19.4;;;11.3;;
7454;SDS011;3769;51.208;4.454;2022-12-05T14:51:42;16.1;;;11.5;;
7454;SDS011;3769;51.208;4.454;2022-12-05T14:56:09;17.3;;;12.2;;
7454;SDS011;3769;51.208;4.454;2022-12-05T15:01:07;17.2;;;11.7;;
7454;SDS011;3769;51.208;4.454;2022-12-05T15:06:09;16.3;;;12.1;;
7454;SDS011;3769;51.208;4.454;2022-12-05T15:11:05;18.5;;;12.2;;
7454;SDS011;3769;51.208;4.454;2022-12-05T15:16:06;15.1;;;11.3;;
7454;SDS011;3769;51.208;4.454;2022-12-05T15:21:09;15.8;;;11.1;;
7454;SDS011;3769;51.208;4.454;2022-12-05T15:26:22;29.4;;;18;;
7454;SDS011;3769;51.208;4.454;2022-12-05T15:31:07;16.6;;;11.2;;
7454;SDS011;3769;51.208;4.454;2022-12-05T15:36:05;17.1;;;11.9;;
7454;SDS011;3769;51.208;4.454;2022-12-05T15:41:11;15.8;;;10.5;;
7454;SDS011;3769;51.208;4.454;2022-12-05T15:46:07;13.9;;;10.1;;
7454;SDS011;3769;51.208;4.454;2022-12-05T15:51:05;15.1;;;10.6;;
7454;SDS011;3769;51.208;4.454;2022-12-05T15:56:09;14.2;;;10.3;;
7454;SDS011;3769;51.208;4.454;2022-12-05T16:01:08;13.2;;;10.4;;
7454;SDS011;3769;51.208;4.454;2022-12-05T16:06:09;14.3;;;10.7;;
7454;SDS011;3769;51.208;4.454;2022-12-05T16:11:07;14.5;;;10.1;;
7454;SDS011;3769;51.208;4.454;2022-12-05T16:16:05;12.6;;;9.6;;
7454;SDS011;3769;51.208;4.454;2022-12-05T16:21:26;13.6;;;9.9;;
7454;SDS011;3769;51.208;4.454;2022-12-05T16:26:09;14.5;;;10.1;;
7454;SDS011;3769;51.208;4.454;2022-12-05T16:31:05;12.7;;;9.8;;
7454;SDS011;3769;51.208;4.454;2022-12-05T16:36:06;14.7;;;11;;
7454;SDS011;3769;51.208;4.454;2022-12-05T16:41:05;14.6;;;10.4;;
7454;SDS011;3769;51.208;4.454;2022-12-05T16:51:16;15.3;;;10.8;;
7454;SDS011;3769;51.208;4.454;2022-12-05T16:56:06;13.2;;;10.2;;
7454;SDS011;3769;51.208;4.454;2022-12-05T17:01:06;14;;;10.7;;
7454;SDS011;3769;51.208;4.454;2022-12-05T17:06:06;12.6;;;9.6;;
7454;SDS011;3769;51.208;4.454;2022-12-05T17:11:09;11.8;;;9.5;;
7454;SDS011;3769;51.208;4.454;2022-12-05T17:16:05;12.3;;;9.8;;
7454;SDS011;3769;51.208;4.454;2022-12-05T17:21:05;13.7;;;9.9;;
7454;SDS011;3769;51.208;4.454;2022-12-05T17:26:07;12.1;;;9;;
7454;SDS011;3769;51.208;4.454;2022-12-05T17:31:05;13.2;;;9.2;;
7454;SDS011;3769;51.208;4.454;2022-12-05T17:36:05;21.3;;;12.3;;
7454;SDS011;3769;51.208;4.454;2022-12-05T17:41:05;13.1;;;9.7;;
7454;SDS011;3769;51.208;4.454;2022-12-05T17:46:05;12.4;;;8.7;;
7454;SDS011;3769;51.208;4.454;2022-12-05T17:51:06;12.9;;;9.4;;
7454;SDS011;3769;51.208;4.454;2022-12-05T17:56:06;11.8;;;8.7;;
7454;SDS011;3769;51.208;4.454;2022-12-05T18:01:05;12.5;;;9.1;;
7454;SDS011;3769;51.208;4.454;2022-12-05T18:06:05;13.9;;;8.7;;
7454;SDS011;3769;51.208;4.454;2022-12-05T18:11:06;12.8;;;8.9;;
7454;SDS011;3769;51.208;4.454;2022-12-05T18:16:06;11.4;;;8.3;;
7454;SDS011;3769;51.208;4.454;2022-12-05T18:21:06;12.2;;;8.7;;
7454;SDS011;3769;51.208;4.454;2022-12-05T18:26:06;13.3;;;9.6;;
7454;SDS011;3769;51.208;4.454;2022-12-05T18:31:08;15.9;;;9.8;;
7454;SDS011;3769;51.208;4.454;2022-12-05T18:36:06;14.3;;;8.7;;
7454;SDS011;3769;51.208;4.454;2022-12-05T18:41:05;14;;;8.8;;
7454;SDS011;3769;51.208;4.454;2022-12-05T18:46:05;12.1;;;8.9;;
7454;SDS011;3769;51.208;4.454;2022-12-05T18:51:22;14.1;;;9.2;;
7454;SDS011;3769;51.208;4.454;2022-12-05T18:56:06;11.9;;;8.2;;
7454;SDS011;3769;51.208;4.454;2022-12-05T19:01:06;11.6;;;8.3;;
7454;SDS011;3769;51.208;4.454;2022-12-05T19:06:14;11.3;;;8;;
7454;SDS011;3769;51.208;4.454;2022-12-05T19:11:05;12.9;;;8.4;;
7454;SDS011;3769;51.208;4.454;2022-12-05T19:16:07;16;;;10.4;;
7454;SDS011;3769;51.208;4.454;2022-12-05T19:21:05;13.3;;;8.9;;
7454;SDS011;3769;51.208;4.454;2022-12-05T19:26:06;13.3;;;8.8;;
7454;SDS011;3769;51.208;4.454;2022-12-05T19:31:06;13.6;;;8.8;;
7454;SDS011;3769;51.208;4.454;2022-12-05T19:36:07;15.5;;;8.5;;
7454;SDS011;3769;51.208;4.454;2022-12-05T19:41:06;13.8;;;8.5;;
7454;SDS011;3769;51.208;4.454;2022-12-05T19:46:06;12.5;;;8.8;;
7454;SDS011;3769;51.208;4.454;2022-12-05T19:51:06;16.9;;;10.4;;
7454;SDS011;3769;51.208;4.454;2022-12-05T19:56:14;15.5;;;9.8;;
7454;SDS011;3769;51.208;4.454;2022-12-05T20:01:07;11.8;;;8.6;;
7454;SDS011;3769;51.208;4.454;2022-12-05T20:06:06;11.2;;;8;;
7454;SDS011;3769;51.208;4.454;2022-12-05T20:11:07;12.1;;;8.2;;
7454;SDS011;3769;51.208;4.454;2022-12-05T20:16:07;12.6;;;8.4;;
7454;SDS011;3769;51.208;4.454;2022-12-05T20:21:06;13.1;;;8.4;;
7454;SDS011;3769;51.208;4.454;2022-12-05T20:26:07;11.2;;;7.7;;
7454;SDS011;3769;51.208;4.454;2022-12-05T20:31:08;12.8;;;8.3;;
7454;SDS011;3769;51.208;4.454;2022-12-05T20:36:06;12.6;;;8.1;;
7454;SDS011;3769;51.208;4.454;2022-12-05T20:41:09;11.5;;;7.8;;
7454;SDS011;3769;51.208;4.454;2022-12-05T20:46:07;11.5;;;7.5;;
7454;SDS011;3769;51.208;4.454;2022-12-05T20:51:08;12.6;;;8;;
7454;SDS011;3769;51.208;4.454;2022-12-05T20:56:07;11.4;;;7.8;;
7454;SDS011;3769;51.208;4.454;2022-12-05T21:01:06;10.8;;;7.6;;
7454;SDS011;3769;51.208;4.454;2022-12-05T21:06:10;10.5;;;7.4;;
7454;SDS011;3769;51.208;4.454;2022-12-05T21:11:06;16.7;;;9.9;;
7454;SDS011;3769;51.208;4.454;2022-12-05T21:16:07;14.5;;;9.3;;
7454;SDS011;3769;51.208;4.454;2022-12-05T21:21:06;14.6;;;8.7;;
7454;SDS011;3769;51.208;4.454;2022-12-05T21:26:06;11.4;;;7.9;;
7454;SDS011;3769;51.208;4.454;2022-12-05T21:31:06;12.5;;;8.5;;
7454;SDS011;3769;51.208;4.454;2022-12-05T21:36:06;12;;;8;;
7454;SDS011;3769;51.208;4.454;2022-12-05T21:41:06;11.5;;;7.9;;
7454;SDS011;3769;51.208;4.454;2022-12-05T21:46:05;13.9;;;9.1;;
7454;SDS011;3769;51.208;4.454;2022-12-05T21:51:06;13.9;;;7.8;;
7454;SDS011;3769;51.208;4.454;2022-12-05T21:56:07;11.7;;;8;;
7454;SDS011;3769;51.208;4.454;2022-12-05T22:01:05;10.6;;;7.6;;
7454;SDS011;3769;51.208;4.454;2022-12-05T22:06:07;9;;;6.9;;
7454;SDS011;3769;51.208;4.454;2022-12-05T22:11:06;10.8;;;6.5;;
7454;SDS011;3769;51.208;4.454;2022-12-05T22:16:06;9.8;;;6.9;;
7454;SDS011;3769;51.208;4.454;2022-12-05T22:21:06;9.3;;;6.8;;
7454;SDS011;3769;51.208;4.454;2022-12-05T22:26:07;11;;;7.1;;
7454;SDS011;3769;51.208;4.454;2022-12-05T22:31:06;9;;;6.8;;
7454;SDS011;3769;51.208;4.454;2022-12-05T22:36:07;8;;;6.5;;
7454;SDS011;3769;51.208;4.454;2022-12-05T22:41:06;8.7;;;5.9;;
7454;SDS011;3769;51.208;4.454;2022-12-05T22:46:06;9.1;;;6;;
7454;SDS011;3769;51.208;4.454;2022-12-05T22:51:06;8.5;;;6;;
7454;SDS011;3769;51.208;4.454;2022-12-05T22:56:07;9.5;;;5.7;;
7454;SDS011;3769;51.208;4.454;2022-12-05T23:01:37;8.8;;;5.7;;
7454;SDS011;3769;51.208;4.454;2022-12-05T23:06:06;7.4;;;5.6;;
7454;SDS011;3769;51.208;4.454;2022-12-05T23:11:06;8.5;;;5.1;;
7454;SDS011;3769;51.208;4.454;2022-12-05T23:16:06;7;;;5.3;;
7454;SDS011;3769;51.208;4.454;2022-12-05T23:21:05;7.6;;;5.7;;
7454;SDS011;3769;51.208;4.454;2022-12-05T23:26:06;7.9;;;5.7;;
7454;SDS011;3769;51.208;4.454;2022-12-05T23:31:06;6.4;;;5.1;;
7454;SDS011;3769;51.208;4.454;2022-12-05T23:36:06;9.1;;;5.4;;
7454;SDS011;3769;51.208;4.454;2022-12-05T23:41:07;7.4;;;5.5;;
7454;SDS011;3769;51.208;4.454;2022-12-05T23:46:06;8.2;;;5.2;;
7454;SDS011;3769;51.208;4.454;2022-12-05T23:51:08;8.9;;;5.6;;
7454;SDS011;3769;51.208;4.454;2022-12-05T23:56:06;7.6;;;5.4;;
